Archival Weather

Norman Y Mineta San Jose Intl

San Jose, California (KSJC)

Report from: Friday, February 2, 2024 10:53 PM PST
Current time: Friday, June 21, 2024 1:11 AM PDT

Current weather – Weather history – Daily summaries
Weather forecast

Temperature9.4°C (48.9°F)
Wind chill8.1°C (46.5°F)
Dew point6.1°C (43.0°F)
Winds 5 kts (2.6 m/s, 5.8 mph) South-Southeast (150°)
Visibility10 mi. (16.1 km)
Clouds Few clouds 2,500 ft. (762 m)
Ceiling: Broken clouds 4,500 ft. (1,372 m)
Broken clouds 6,000 ft. (1,829 m)
Altimeter30.03 in.Hg (1017 mB)
PrecipitiationTrace
Precip. events Rain began 6:19 AM
Rain ended 6:34 AM
Relative humidity80 %
Density altitude-654 ft. (-199 m)
Sea-level pressure101.7 kPa (1017 mB, 30.03 in.Hg)
Remarks Automated weather observing station with precipitation discriminator
Flight conditions Visual Meteorological Conditions
Raw dataKSJC 030653Z 15005KT 10SM FEW025 BKN045 BKN060 09/06 A3003 RMK AO2 RAB19E34 SLP168 P0000 T00940061
An error has occurred. This application may no longer respond until reloaded. Reload 🗙